Kellogg, Idaho
Current Conditions -  °F | °C
As of 1:53 PM on Wednesday 26 Nov 2014 (Local Time) from KMLP Reporting Station
Moderate Fog Moderate Fog  
Wind Chill: 27°   Ceiling: 100
Heat Index: 34°   Visibility: 0mi
Dew Point: 34°   Wind: 9mph
Humidity: 100%   Direction: 250°WSW
Pressure: 30.1"   Gusts: 18mph
Location:  47.54°N, 116.12°W
Report Text: KMLP 262153Z AUTO 25008G16KT 210V350 M1/4SM FG VV001 01/01 A3010 RMK AO2 SLP166 T00110011
Loading
Personal Weather Stations






























Interactive Weather Map New forecast layout! Learn more

10-Day Weather Forecast

Advertisements
Track Severe Weather on mobile